Time;durP1;ratioP1;P1;durP2;ratioP2;P2;SDS_P1;SDS_P2;PMS_P1;PMS_P2;Temp;Humidity;BMP_temperature;BMP_pressure;BME280_temperature;BME280_humidity;BME280_pressure;Samples;Min_cycle;Max_cycle;Signal;HPM_P1;HPM_P2
2023/03/31 00:01:27;;;;;;;8.20;2.45;;;13.80;73.60;;;;;;5032181;28;20033;-62
2023/03/31 00:04:02;;;;;;;9.57;2.45;;;13.80;73.60;;;;;;5032777;28;20034;-62
2023/03/31 00:06:28;;;;;;;7.50;2.10;;;13.80;74.30;;;;;;5023263;28;20385;-61
2023/03/31 00:08:54;;;;;;;8.95;2.60;;;13.80;73.60;;;;;;5061585;28;20029;-61
2023/03/31 00:11:21;;;;;;;8.40;2.22;;;13.70;73.60;;;;;;5039830;28;20331;-62
2023/03/31 00:13:47;;;;;;;9.57;2.50;;;13.70;73.70;;;;;;5033439;28;20110;-61
2023/03/31 00:16:13;;;;;;;10.15;2.75;;;13.70;73.60;;;;;;5046404;28;20458;-61
2023/03/31 00:18:46;;;;;;;7.60;2.40;;;13.80;73.70;;;;;;5040529;28;20033;-62
2023/03/31 00:21:23;;;;;;;8.35;2.28;;;13.80;73.70;;;;;;5021094;28;20116;-62
2023/03/31 00:23:52;;;;;;;9.18;2.80;;;13.70;73.70;;;;;;5032751;28;20037;-61
2023/03/31 00:26:18;;;;;;;11.07;3.20;;;13.70;73.80;;;;;;5046138;28;20021;-61
2023/03/31 00:28:43;;;;;;;9.00;2.67;;;13.70;73.80;;;;;;5040716;28;20031;-62
2023/03/31 00:31:09;;;;;;;8.48;2.92;;;13.70;73.90;;;;;;5037878;28;20021;-62
2023/03/31 00:33:35;;;;;;;9.80;2.97;;;13.70;73.90;;;;;;5034595;28;20025;-62
2023/03/31 00:36:04;;;;;;;9.65;2.72;;;13.70;73.90;;;;;;5030977;28;20032;-61
2023/03/31 00:38:31;;;;;;;8.52;2.85;;;13.70;73.90;;;;;;5033992;28;20052;-61
2023/03/31 00:40:58;;;;;;;7.22;2.75;;;13.70;74.00;;;;;;5037821;28;20101;-61
2023/03/31 00:44:23;;;;;;;12.52;3.05;;;13.70;74.00;;;;;;5032182;28;20442;-62
2023/03/31 00:47:11;;;;;;;9.20;2.47;;;13.70;74.00;;;;;;5004629;28;20415;-61
2023/03/31 00:49:45;;;;;;;9.32;2.45;;;13.70;74.00;;;;;;5037222;28;20025;-62
2023/03/31 00:52:22;;;;;;;8.80;3.08;;;13.70;74.10;;;;;;5033445;28;20025;-61
2023/03/31 00:55:02;;;;;;;9.50;2.47;;;13.60;74.10;;;;;;5022414;28;20083;-61
2023/03/31 00:57:31;;;;;;;8.05;2.10;;;13.60;74.20;;;;;;5036849;28;20470;-61
2023/03/31 01:00:06;;;;;;;6.88;2.10;;;13.60;74.30;;;;;;5033608;28;20338;-61
2023/03/31 01:02:32;;;;;;;6.28;2.05;;;13.60;74.40;;;;;;5028064;28;20033;-61
2023/03/31 01:05:00;;;;;;;6.53;2.15;;;13.60;74.50;;;;;;5033450;28;20028;-61
2023/03/31 01:07:43;;;;;;;7.70;2.03;;;13.60;74.70;;;;;;5034760;28;20025;-61
2023/03/31 01:10:11;;;;;;;6.15;2.42;;;13.60;74.80;;;;;;5038184;28;20021;-62
2023/03/31 01:12:47;;;;;;;6.50;2.13;;;13.60;75.00;;;;;;5041151;28;20087;-61
2023/03/31 01:15:13;;;;;;;7.75;2.10;;;13.60;75.30;;;;;;5043010;28;20100;-61
2023/03/31 01:17:43;;;;;;;6.40;2.30;;;13.50;75.40;;;;;;5041419;28;20020;-61
2023/03/31 01:20:31;;;;;;;10.33;2.40;;;13.50;75.70;;;;;;5039730;28;20441;-61
2023/03/31 01:23:11;;;;;;;9.18;2.15;;;13.50;75.90;;;;;;5042425;28;20033;-61
2023/03/31 01:26:06;;;;;;;10.50;2.13;;;13.50;76.20;;;;;;5032044;28;20034;-61
2023/03/31 01:29:10;;;;;;;6.57;1.75;;;13.40;76.30;;;;;;5037947;28;20388;-64
2023/03/31 01:31:44;;;;;;;8.52;2.25;;;13.40;76.40;;;;;;5018817;28;20347;-62
2023/03/31 01:34:41;;;;;;;6.00;1.55;;;13.40;76.60;;;;;;5048995;28;20370;-61
2023/03/31 01:37:36;;;;;;;6.60;1.55;;;13.40;76.70;;;;;;5033979;28;20445;-61
2023/03/31 01:40:14;;;;;;;7.28;1.85;;;13.40;76.80;;;;;;5027461;28;20125;-61
2023/03/31 01:42:49;;;;;;;5.45;1.83;;;13.30;76.80;;;;;;5043662;28;20029;-61
2023/03/31 01:45:29;;;;;;;5.55;1.70;;;13.30;76.80;;;;;;5047047;28;20035;-61
2023/03/31 01:48:01;;;;;;;6.50;1.85;;;13.30;76.90;;;;;;5038082;28;20390;-61
2023/03/31 01:50:38;;;;;;;5.38;1.70;;;13.30;77.00;;;;;;5046680;28;20345;-62
2023/03/31 01:53:09;;;;;;;5.88;1.65;;;13.30;77.10;;;;;;5037534;28;20350;-61
2023/03/31 01:55:41;;;;;;;8.35;1.70;;;13.30;77.10;;;;;;5033623;28;20520;-61
2023/03/31 01:58:18;;;;;;;5.70;1.80;;;13.30;77.20;;;;;;5044874;28;20060;-62
2023/03/31 02:00:55;;;;;;;5.50;1.42;;;13.30;77.30;;;;;;5049338;28;20021;-61
2023/03/31 02:03:28;;;;;;;7.10;1.65;;;13.30;77.40;;;;;;5040004;28;20124;-61
2023/03/31 02:06:01;;;;;;;7.20;1.65;;;13.30;77.40;;;;;;5047070;28;20073;-62
2023/03/31 02:08:36;;;;;;;4.82;1.55;;;13.40;77.40;;;;;;5044129;28;20111;-62
2023/03/31 02:11:02;;;;;;;6.63;1.70;;;13.30;77.40;;;;;;5042739;28;20116;-62
2023/03/31 02:13:29;;;;;;;4.72;1.73;;;13.30;77.50;;;;;;5032599;28;20108;-62
2023/03/31 02:16:00;;;;;;;8.00;1.50;;;13.30;77.50;;;;;;5037741;28;20021;-61
2023/03/31 02:18:32;;;;;;;9.30;2.20;;;13.30;77.60;;;;;;5022907;28;20018;-62
2023/03/31 02:20:59;;;;;;;5.05;1.58;;;13.30;77.60;;;;;;5043642;28;20030;-62
2023/03/31 02:23:31;;;;;;;9.45;2.03;;;13.30;77.70;;;;;;5038806;28;20029;-61
2023/03/31 02:26:14;;;;;;;8.50;1.90;;;13.30;77.80;;;;;;5045045;28;20058;-61
2023/03/31 02:28:41;;;;;;;7.53;2.22;;;13.30;77.80;;;;;;5040816;28;20385;-62
2023/03/31 02:31:21;;;;;;;9.85;2.47;;;13.30;77.80;;;;;;5039994;28;20049;-61
2023/03/31 02:33:47;;;;;;;11.35;2.13;;;13.30;77.80;;;;;;5045764;28;20095;-62
2023/03/31 02:36:14;;;;;;;6.53;1.83;;;13.30;77.80;;;;;;5039977;28;20033;-61
2023/03/31 02:38:47;;;;;;;7.82;2.15;;;13.40;77.90;;;;;;5039752;28;20036;-61
2023/03/31 02:41:12;;;;;;;5.97;2.22;;;13.30;78.00;;;;;;5045023;28;20525;-61
2023/03/31 02:43:38;;;;;;;6.78;1.85;;;13.40;78.00;;;;;;5049070;28;20033;-61
2023/03/31 02:46:04;;;;;;;8.88;2.15;;;13.30;78.00;;;;;;5038535;28;20099;-61
2023/03/31 02:48:35;;;;;;;9.25;2.47;;;13.40;78.10;;;;;;5038892;28;20028;-61
2023/03/31 02:51:07;;;;;;;6.65;1.80;;;13.40;78.20;;;;;;5041762;28;20362;-61
2023/03/31 02:53:36;;;;;;;7.78;2.08;;;13.40;78.20;;;;;;5042795;28;20112;-61
2023/03/31 02:56:16;;;;;;;4.63;1.75;;;13.40;78.20;;;;;;5039936;28;20072;-61
2023/03/31 02:59:13;;;;;;;10.50;2.60;;;13.40;78.30;;;;;;5040133;28;20167;-61
2023/03/31 03:02:00;;;;;;;6.15;2.05;;;13.30;78.20;;;;;;5041194;28;20033;-62
2023/03/31 03:04:36;;;;;;;6.20;1.80;;;13.30;78.20;;;;;;5047726;28;20025;-61
2023/03/31 03:07:25;;;;;;;8.05;2.55;;;13.30;78.20;;;;;;5049226;28;20309;-62
2023/03/31 03:10:36;;;;;;;4.47;1.42;;;13.30;78.20;;;;;;5033712;28;20013;-62
2023/03/31 03:13:33;;;;;;;6.82;1.98;;;13.30;78.20;;;;;;5030106;28;20048;-61
2023/03/31 03:16:41;;;;;;;8.63;1.88;;;13.30;78.20;;;;;;5043496;28;20033;-61
2023/03/31 03:19:07;;;;;;;7.25;2.15;;;13.30;78.30;;;;;;5020621;28;20111;-62
2023/03/31 03:21:33;;;;;;;6.15;1.77;;;13.20;78.20;;;;;;5035723;28;20064;-62
2023/03/31 03:24:00;;;;;;;5.97;2.00;;;13.30;78.30;;;;;;5039820;28;20082;-61
2023/03/31 03:26:29;;;;;;;6.50;1.67;;;13.30;78.30;;;;;;5050066;28;20067;-61
2023/03/31 03:28:55;;;;;;;8.18;1.73;;;13.30;78.30;;;;;;5041804;28;20034;-61
2023/03/31 03:31:22;;;;;;;6.18;1.70;;;13.30;78.40;;;;;;5034688;28;20104;-62
2023/03/31 03:33:51;;;;;;;6.13;1.95;;;13.30;78.40;;;;;;5039228;28;20116;-61
2023/03/31 03:36:18;;;;;;;6.95;1.67;;;13.30;78.50;;;;;;5044706;28;20108;-62
2023/03/31 03:38:43;;;;;;;6.90;1.85;;;13.20;78.50;;;;;;5046462;28;20033;-61
2023/03/31 03:41:09;;;;;;;6.80;1.67;;;13.20;78.50;;;;;;5035588;28;20036;-61
2023/03/31 03:43:35;;;;;;;7.85;2.15;;;13.20;78.60;;;;;;5039136;28;20037;-61
2023/03/31 03:46:01;;;;;;;9.35;2.15;;;13.20;78.60;;;;;;5040173;28;20124;-61
2023/03/31 03:48:28;;;;;;;8.15;2.40;;;13.20;78.70;;;;;;5050704;28;20110;-61
2023/03/31 03:50:54;;;;;;;6.40;1.77;;;13.20;78.90;;;;;;5037250;28;20104;-61
2023/03/31 03:53:20;;;;;;;8.85;2.15;;;13.20;79.00;;;;;;5048724;28;20104;-61
2023/03/31 03:55:50;;;;;;;8.90;1.50;;;13.20;79.10;;;;;;5036307;28;20029;-61
2023/03/31 03:58:17;;;;;;;10.98;2.00;;;13.20;79.20;;;;;;5030558;28;20029;-61
2023/03/31 04:00:44;;;;;;;9.07;2.28;;;13.20;79.20;;;;;;5029302;28;20113;-61
2023/03/31 04:03:10;;;;;;;9.02;2.17;;;13.20;79.20;;;;;;5030143;28;20030;-62
2023/03/31 04:05:36;;;;;;;11.73;2.45;;;13.20;79.30;;;;;;5031846;28;20067;-61
2023/03/31 04:08:03;;;;;;;11.02;1.98;;;13.20;79.30;;;;;;5022088;28;20049;-61
2023/03/31 04:10:29;;;;;;;8.27;1.75;;;13.20;79.40;;;;;;5022341;28;20061;-61
2023/03/31 04:12:54;;;;;;;9.48;2.22;;;13.20;79.50;;;;;;5031356;28;20505;-62
2023/03/31 04:15:20;;;;;;;6.90;1.58;;;13.10;79.50;;;;;;5027854;28;20047;-62
2023/03/31 04:17:49;;;;;;;4.80;1.70;;;13.10;79.60;;;;;;5023472;28;20451;-62
2023/03/31 04:20:16;;;;;;;6.32;1.60;;;13.10;79.70;;;;;;5025431;28;20113;-63
2023/03/31 04:22:45;;;;;;;9.05;2.10;;;13.10;79.80;;;;;;5017364;28;20031;-63
2023/03/31 04:25:15;;;;;;;5.22;1.90;;;13.10;79.80;;;;;;5000325;28;20422;-62
2023/03/31 04:27:45;;;;;;;10.07;2.67;;;13.10;79.90;;;;;;5020850;28;20029;-62
2023/03/31 04:30:21;;;;;;;11.07;2.30;;;13.10;79.90;;;;;;5031306;28;20320;-63
2023/03/31 04:32:53;;;;;;;9.45;2.10;;;13.10;80.00;;;;;;5032765;28;20441;-63
2023/03/31 04:35:24;;;;;;;7.13;2.22;;;13.00;79.90;;;;;;5039282;28;20076;-62
2023/03/31 04:37:57;;;;;;;10.40;2.75;;;13.10;80.00;;;;;;5043911;28;20025;-62
2023/03/31 04:40:24;;;;;;;7.68;2.15;;;13.00;79.90;;;;;;5027315;28;20552;-62
2023/03/31 04:42:50;;;;;;;7.28;1.83;;;13.00;79.90;;;;;;5040682;28;20068;-62
2023/03/31 04:45:16;;;;;;;8.80;2.00;;;13.00;80.00;;;;;;5044542;28;20022;-62
2023/03/31 04:47:42;;;;;;;8.57;2.15;;;13.00;80.10;;;;;;5042279;28;20030;-62
2023/03/31 04:50:09;;;;;;;6.28;1.83;;;13.00;80.20;;;;;;5050820;28;20956;-62
2023/03/31 04:52:36;;;;;;;8.18;2.00;;;13.00;80.20;;;;;;5042673;28;20018;-62
2023/03/31 04:55:02;;;;;;;9.75;2.10;;;13.00;80.20;;;;;;5053805;28;20469;-62
2023/03/31 04:57:28;;;;;;;7.18;1.73;;;13.00;80.20;;;;;;5018842;28;20037;-62
2023/03/31 04:59:53;;;;;;;6.60;2.25;;;13.00;80.20;;;;;;5052657;28;20032;-61
2023/03/31 05:02:23;;;;;;;5.75;1.75;;;13.00;80.20;;;;;;5044093;28;20390;-61
2023/03/31 05:04:50;;;;;;;7.45;1.92;;;13.00;80.20;;;;;;5042294;28;20227;-61
2023/03/31 05:07:17;;;;;;;6.35;2.00;;;13.10;80.10;;;;;;5041082;28;20028;-61
2023/03/31 05:09:43;;;;;;;7.82;2.08;;;13.10;80.10;;;;;;5047880;28;20358;-63
2023/03/31 05:12:08;;;;;;;11.13;2.55;;;13.10;80.00;;;;;;5057306;28;20017;-61
2023/03/31 05:14:34;;;;;;;5.25;1.63;;;13.10;80.10;;;;;;5048859;28;20024;-62
2023/03/31 05:17:00;;;;;;;10.55;2.40;;;13.10;80.10;;;;;;5037514;28;20061;-61
2023/03/31 05:19:26;;;;;;;12.38;2.60;;;13.10;80.10;;;;;;5034973;28;20430;-61
2023/03/31 05:21:52;;;;;;;8.45;2.25;;;13.10;80.20;;;;;;5034950;28;20462;-61
2023/03/31 05:24:17;;;;;;;9.35;2.35;;;13.10;80.20;;;;;;5041966;28;20028;-62
2023/03/31 05:26:51;;;;;;;8.23;1.88;;;13.10;80.20;;;;;;5038836;28;20526;-61
2023/03/31 05:29:20;;;;;;;7.15;1.98;;;13.10;80.10;;;;;;5034913;28;20021;-62
2023/03/31 05:31:46;;;;;;;7.05;1.55;;;13.10;80.10;;;;;;5039899;28;20119;-62
2023/03/31 05:34:13;;;;;;;10.25;2.10;;;13.10;80.10;;;;;;5038195;28;20100;-62
2023/03/31 05:36:39;;;;;;;6.35;2.15;;;13.10;80.10;;;;;;5027659;28;20109;-65
2023/03/31 05:39:06;;;;;;;12.52;2.78;;;13.10;80.10;;;;;;5044562;28;20477;-62
2023/03/31 05:41:31;;;;;;;8.98;2.13;;;13.10;80.10;;;;;;5047749;28;20358;-62
2023/03/31 05:43:57;;;;;;;9.82;1.70;;;13.10;80.10;;;;;;5048553;28;20029;-61
2023/03/31 05:46:23;;;;;;;8.13;2.10;;;13.10;80.10;;;;;;5004478;28;20056;-64
2023/03/31 05:48:49;;;;;;;6.13;1.55;;;13.10;80.10;;;;;;5021919;28;20418;-64
2023/03/31 05:51:15;;;;;;;7.30;1.80;;;13.10;80.10;;;;;;5025267;28;20021;-65
2023/03/31 05:53:41;;;;;;;7.40;1.92;;;13.10;80.10;;;;;;5034793;28;20032;-66
2023/03/31 05:56:07;;;;;;;6.38;2.30;;;13.10;80.10;;;;;;5031112;28;20021;-65
2023/03/31 05:58:34;;;;;;;7.55;2.15;;;13.10;80.10;;;;;;5028181;28;20033;-65
2023/03/31 06:01:06;;;;;;;7.90;1.95;;;13.10;80.20;;;;;;5025842;28;20026;-67
2023/03/31 06:03:33;;;;;;;7.35;1.63;;;13.10;80.70;;;;;;5032476;28;20339;-64
2023/03/31 06:06:00;;;;;;;8.05;2.10;;;13.10;80.10;;;;;;5017771;28;20296;-62
2023/03/31 06:08:27;;;;;;;7.22;1.88;;;13.10;80.00;;;;;;5032879;28;20028;-62
2023/03/31 06:10:53;;;;;;;7.72;2.10;;;13.10;80.00;;;;;;5032216;28;20078;-64
2023/03/31 06:13:19;;;;;;;7.90;1.77;;;13.10;79.90;;;;;;5035885;28;20038;-63
2023/03/31 06:15:56;;;;;;;5.75;1.83;;;13.20;80.00;;;;;;5031809;28;20067;-63
2023/03/31 06:18:23;;;;;;;8.10;2.22;;;13.20;80.00;;;;;;5033813;28;20038;-63
2023/03/31 06:20:49;;;;;;;6.57;1.95;;;13.20;80.70;;;;;;5034184;28;20116;-64
2023/03/31 06:23:15;;;;;;;10.00;2.20;;;13.10;80.00;;;;;;5017910;28;20053;-63
2023/03/31 06:25:41;;;;;;;5.60;1.70;;;13.20;80.10;;;;;;5018431;28;20057;-63
2023/03/31 06:28:07;;;;;;;10.10;2.22;;;13.20;80.10;;;;;;5000364;28;20030;-63
2023/03/31 06:30:33;;;;;;;9.05;2.47;;;13.10;80.00;;;;;;5030095;28;20026;-62
2023/03/31 06:32:59;;;;;;;6.47;1.60;;;13.10;80.00;;;;;;5040452;28;20086;-63
2023/03/31 06:35:25;;;;;;;5.55;1.40;;;13.10;80.00;;;;;;5039085;28;20025;-63
2023/03/31 06:37:51;;;;;;;6.55;1.33;;;13.10;79.90;;;;;;5037214;28;20031;-63
2023/03/31 06:40:17;;;;;;;5.93;1.90;;;13.10;79.80;;;;;;5055002;28;20028;-62
2023/03/31 06:42:43;;;;;;;6.40;2.92;;;13.10;79.80;;;;;;5040542;28;20033;-63
2023/03/31 06:45:09;;;;;;;11.55;4.40;;;13.10;79.70;;;;;;5043993;28;20093;-63
2023/03/31 06:47:40;;;;;;;8.57;2.95;;;13.10;79.60;;;;;;5034738;28;20045;-62
2023/03/31 06:50:07;;;;;;;6.17;1.97;;;13.20;79.60;;;;;;5046432;28;20360;-62
2023/03/31 06:52:33;;;;;;;8.35;2.50;;;13.20;79.60;;;;;;5033191;28;20041;-61
2023/03/31 06:54:59;;;;;;;7.00;2.88;;;13.20;79.40;;;;;;5024971;28;20326;-62
2023/03/31 06:57:27;;;;;;;9.43;3.20;;;13.20;79.40;;;;;;5033053;28;20022;-62
2023/03/31 06:59:53;;;;;;;8.23;2.40;;;13.30;79.30;;;;;;5034294;28;20365;-63
2023/03/31 07:02:18;;;;;;;9.55;2.38;;;13.30;79.30;;;;;;5033392;28;20105;-63
2023/03/31 07:04:44;;;;;;;6.45;2.05;;;13.30;79.20;;;;;;5033658;28;20021;-62
2023/03/31 07:07:10;;;;;;;6.22;2.83;;;13.30;79.10;;;;;;5031342;28;20045;-61
2023/03/31 07:09:36;;;;;;;4.93;1.70;;;13.30;79.10;;;;;;5031114;28;20033;-61
2023/03/31 07:12:04;;;;;;;3.95;1.35;;;13.30;79.10;;;;;;5028503;28;20687;-60
2023/03/31 07:14:32;;;;;;;5.75;1.40;;;13.30;79.10;;;;;;5034837;28;20387;-61
2023/03/31 07:16:58;;;;;;;5.03;1.40;;;13.30;79.10;;;;;;5031951;28;21649;-61
2023/03/31 07:19:24;;;;;;;8.07;1.80;;;13.30;79.10;;;;;;5034481;28;20175;-61
2023/03/31 07:21:50;;;;;;;5.35;1.80;;;13.30;79.20;;;;;;5032866;28;20112;-61
2023/03/31 07:24:16;;;;;;;4.30;1.23;;;13.30;79.30;;;;;;5031448;28;20347;-61
2023/03/31 07:26:42;;;;;;;6.72;1.80;;;13.20;79.30;;;;;;5031989;28;20053;-61
2023/03/31 07:29:08;;;;;;;3.45;1.05;;;13.20;80.00;;;;;;5033210;28;20509;-61
2023/03/31 07:31:34;;;;;;;7.30;1.63;;;13.20;79.40;;;;;;5019427;28;20025;-62
2023/03/31 07:34:02;;;;;;;4.75;1.40;;;13.20;79.50;;;;;;5038515;28;20072;-61
2023/03/31 07:36:30;;;;;;;5.30;1.27;;;13.20;79.50;;;;;;5036110;28;20040;-61
2023/03/31 07:38:56;;;;;;;6.07;1.60;;;13.20;79.60;;;;;;5042970;28;20033;-61
2023/03/31 07:41:23;;;;;;;8.05;2.05;;;13.20;79.60;;;;;;5048580;28;20073;-61
2023/03/31 07:43:50;;;;;;;4.50;1.75;;;13.20;79.70;;;;;;5044087;28;20037;-61
2023/03/31 07:46:26;;;;;;;6.57;1.50;;;13.20;79.70;;;;;;5043576;28;20057;-61
2023/03/31 07:48:54;;;;;;;5.25;1.60;;;13.20;79.70;;;;;;5028672;28;20034;-61
2023/03/31 07:51:23;;;;;;;7.03;1.70;;;13.20;79.80;;;;;;5043054;28;20438;-61
2023/03/31 07:53:51;;;;;;;8.68;1.95;;;13.20;80.00;;;;;;5028324;28;20473;-61
2023/03/31 07:56:18;;;;;;;5.72;1.42;;;13.10;80.00;;;;;;5045341;28;20358;-61
2023/03/31 07:58:45;;;;;;;6.95;1.80;;;13.10;80.00;;;;;;5030848;28;20032;-60
2023/03/31 08:01:15;;;;;;;6.47;1.73;;;13.10;80.10;;;;;;5044479;28;20094;-61
2023/03/31 08:03:42;;;;;;;8.55;1.98;;;13.10;80.10;;;;;;5041384;28;20464;-61
2023/03/31 08:06:08;;;;;;;5.72;1.67;;;13.10;80.10;;;;;;5042247;28;20055;-61
2023/03/31 08:08:33;;;;;;;4.97;1.38;;;13.10;80.10;;;;;;5049125;28;21443;-61
2023/03/31 08:10:59;;;;;;;3.35;1.10;;;13.20;80.10;;;;;;5040521;28;20460;-61
2023/03/31 08:13:25;;;;;;;5.90;1.67;;;13.20;80.10;;;;;;5039625;28;20095;-61
2023/03/31 08:15:51;;;;;;;6.18;1.65;;;13.20;80.10;;;;;;5043454;28;20035;-62
2023/03/31 08:18:17;;;;;;;5.78;1.42;;;13.20;80.10;;;;;;5057106;28;20037;-61
2023/03/31 08:20:43;;;;;;;5.03;1.50;;;13.20;80.10;;;;;;5038339;28;20029;-61
2023/03/31 08:23:10;;;;;;;5.50;1.50;;;13.20;80.00;;;;;;5058149;28;20338;-61
2023/03/31 08:25:37;;;;;;;3.83;1.13;;;13.20;80.00;;;;;;5030950;28;20030;-61
2023/03/31 08:28:02;;;;;;;5.88;1.60;;;13.20;80.10;;;;;;5040740;28;20127;-61
2023/03/31 08:30:28;;;;;;;7.75;2.28;;;13.30;80.10;;;;;;5057598;28;20071;-61
2023/03/31 08:32:54;;;;;;;6.32;1.75;;;13.30;80.10;;;;;;5057789;28;20032;-62
2023/03/31 08:35:20;;;;;;;7.05;1.60;;;13.40;80.00;;;;;;5056863;28;20025;-61
2023/03/31 08:37:46;;;;;;;4.93;1.60;;;13.40;79.90;;;;;;5046239;28;20027;-62
2023/03/31 08:40:19;;;;;;;6.20;1.63;;;13.50;79.90;;;;;;5057568;28;20044;-61
2023/03/31 08:42:50;;;;;;;7.63;1.55;;;13.50;79.90;;;;;;5057055;28;20337;-62
2023/03/31 08:45:31;;;;;;;3.78;1.58;;;13.60;79.80;;;;;;5057600;28;20040;-62
2023/03/31 08:48:06;;;;;;;7.47;1.77;;;13.70;79.80;;;;;;5040480;28;20080;-62
2023/03/31 08:50:45;;;;;;;8.55;1.90;;;13.70;79.70;;;;;;5057266;28;20025;-62
2023/03/31 08:53:21;;;;;;;7.57;1.90;;;13.80;79.60;;;;;;5056778;28;20031;-62
2023/03/31 08:55:52;;;;;;;5.65;1.85;;;14.00;79.50;;;;;;5056553;28;20412;-62
2023/03/31 08:58:35;;;;;;;7.72;2.38;;;14.00;79.40;;;;;;5045520;28;20029;-62
2023/03/31 09:01:23;;;;;;;7.85;2.53;;;14.10;79.40;;;;;;5034383;28;20406;-62
2023/03/31 09:04:31;;;;;;;7.68;2.50;;;14.10;79.30;;;;;;5057287;28;20036;-62
2023/03/31 09:07:14;;;;;;;12.70;2.80;;;14.20;79.20;;;;;;5048128;28;20045;-62
2023/03/31 09:09:55;;;;;;;12.52;2.40;;;14.20;79.00;;;;;;5040889;28;20116;-62
2023/03/31 09:12:30;;;;;;;10.85;2.33;;;14.40;79.00;;;;;;5050800;28;20083;-62
2023/03/31 09:15:18;;;;;;;8.77;2.38;;;14.50;78.80;;;;;;5047249;28;20021;-62
2023/03/31 09:17:46;;;;;;;10.38;2.58;;;14.50;78.70;;;;;;5042102;28;20044;-63
2023/03/31 09:20:18;;;;;;;12.38;2.70;;;14.50;78.60;;;;;;5041678;28;20482;-62
2023/03/31 09:22:49;;;;;;;9.32;2.38;;;14.50;78.70;;;;;;5040799;28;20090;-62
2023/03/31 09:25:22;;;;;;;9.02;2.47;;;14.50;78.70;;;;;;5050906;28;20036;-63
2023/03/31 09:27:49;;;;;;;10.40;2.40;;;14.50;78.80;;;;;;5056604;28;20090;-63
2023/03/31 09:30:29;;;;;;;13.90;3.28;;;14.40;78.90;;;;;;5050891;28;20093;-63
2023/03/31 09:33:21;;;;;;;8.05;2.25;;;14.40;79.10;;;;;;5055221;28;20037;-64
2023/03/31 09:35:47;;;;;;;12.13;2.53;;;14.40;79.20;;;;;;5050666;28;20045;-65
2023/03/31 09:38:15;;;;;;;12.57;3.00;;;14.40;79.30;;;;;;5030711;28;20454;-62
2023/03/31 09:40:41;;;;;;;13.25;2.67;;;14.40;79.30;;;;;;5050173;28;20035;-62
2023/03/31 09:43:27;;;;;;;10.52;3.03;;;14.40;79.20;;;;;;5036709;28;20026;-63
2023/03/31 09:45:53;;;;;;;14.35;3.05;;;14.40;79.10;;;;;;5056466;28;20524;-62
2023/03/31 09:48:24;;;;;;;11.43;3.40;;;14.40;79.10;;;;;;5041592;28;20075;-64
2023/03/31 09:50:56;;;;;;;11.67;2.93;;;14.50;79.20;;;;;;5049262;28;20036;-65
2023/03/31 09:53:31;;;;;;;12.07;2.53;;;14.50;79.10;;;;;;5040372;28;20319;-62
2023/03/31 09:56:01;;;;;;;10.73;3.10;;;14.50;79.10;;;;;;5055140;28;20040;-63
2023/03/31 09:58:27;;;;;;;11.98;3.15;;;14.60;79.00;;;;;;5038377;28;20029;-62
2023/03/31 10:01:02;;;;;;;9.45;3.33;;;14.60;79.00;;;;;;5033855;28;21819;-63
2023/03/31 10:03:35;;;;;;;9.32;2.85;;;14.60;78.80;;;;;;5044035;28;20112;-63
2023/03/31 10:06:07;;;;;;;7.45;2.58;;;14.70;78.70;;;;;;5046776;28;20116;-63
2023/03/31 10:08:40;;;;;;;13.02;3.13;;;14.70;78.60;;;;;;5039062;28;20083;-61
2023/03/31 10:11:11;;;;;;;11.65;3.10;;;14.70;78.50;;;;;;5032531;28;20048;-61
2023/03/31 10:13:51;;;;;;;11.23;2.85;;;14.70;78.40;;;;;;5050542;28;20025;-62
2023/03/31 10:16:26;;;;;;;12.25;3.10;;;14.60;78.30;;;;;;5020344;28;20035;-61
2023/03/31 10:18:52;;;;;;;12.27;3.38;;;14.60;78.40;;;;;;5047227;28;20112;-61
2023/03/31 10:21:24;;;;;;;10.27;2.65;;;14.50;78.20;;;;;;5046762;28;20057;-61
2023/03/31 10:23:52;;;;;;;13.02;3.28;;;14.50;78.20;;;;;;5056103;28;20431;-62
2023/03/31 10:26:22;;;;;;;13.35;3.20;;;14.40;78.20;;;;;;5054264;28;20507;-62
2023/03/31 10:28:51;;;;;;;12.27;2.83;;;14.40;78.10;;;;;;5055533;28;20032;-62
2023/03/31 10:31:18;;;;;;;10.90;3.03;;;14.40;78.00;;;;;;5048419;28;20021;-61
2023/03/31 10:33:47;;;;;;;9.80;2.33;;;14.40;77.90;;;;;;5048147;28;20445;-61
2023/03/31 10:36:27;;;;;;;8.77;2.05;;;14.40;77.80;;;;;;5055035;28;20465;-61
2023/03/31 10:38:54;;;;;;;12.68;2.78;;;14.40;77.60;;;;;;5054832;28;20142;-62
2023/03/31 10:41:23;;;;;;;8.07;2.33;;;14.40;77.50;;;;;;5049007;28;20033;-63
2023/03/31 10:43:52;;;;;;;9.40;2.75;;;14.50;77.20;;;;;;5047291;28;20033;-63
2023/03/31 10:46:19;;;;;;;12.13;2.50;;;14.50;77.00;;;;;;5049056;28;20048;-62
2023/03/31 10:48:45;;;;;;;11.23;2.92;;;14.60;76.90;;;;;;5014087;28;20037;-63
2023/03/31 10:51:33;;;;;;;13.63;2.42;;;14.70;76.60;;;;;;5041949;28;20029;-62
2023/03/31 10:54:02;;;;;;;9.05;2.40;;;14.70;76.30;;;;;;5036953;28;20101;-62
2023/03/31 10:56:36;;;;;;;8.20;1.90;;;14.80;75.90;;;;;;5037991;28;20032;-62
2023/03/31 10:59:40;;;;;;;12.75;2.60;;;14.90;75.60;;;;;;5047812;28;20125;-63
2023/03/31 11:02:27;;;;;;;9.65;2.40;;;15.10;75.30;;;;;;5009344;28;20679;-63
2023/03/31 11:04:55;;;;;;;7.32;1.98;;;15.20;75.10;;;;;;5030938;28;20049;-62
2023/03/31 11:07:47;;;;;;;9.63;2.55;;;15.20;74.70;;;;;;5039386;28;20032;-63
2023/03/31 11:10:23;;;;;;;;;;;15.30;74.50;;;;;;5031547;28;20030;-62
2023/03/31 11:12:52;;;;;;;8.82;2.25;;;15.30;74.60;;;;;;5037747;28;19992;-62
2023/03/31 11:15:30;;;;;;;7.00;2.20;;;15.30;74.40;;;;;;5027731;28;20026;-62
2023/03/31 11:18:46;;;;;;;10.05;2.53;;;15.30;74.10;;;;;;5046335;28;20047;-62
2023/03/31 11:21:37;;;;;;;8.85;2.13;;;15.30;73.70;;;;;;5039678;28;20021;-63
2023/03/31 11:24:33;;;;;;;8.70;1.67;;;15.30;73.70;;;;;;5030350;28;20033;-62
2023/03/31 11:27:11;;;;;;;7.97;2.10;;;15.20;73.60;;;;;;5036051;28;20874;-62
2023/03/31 11:29:52;;;;;;;6.43;1.83;;;15.20;73.80;;;;;;5031192;28;20032;-62
2023/03/31 11:32:23;;;;;;;8.77;2.05;;;15.20;73.50;;;;;;5041203;28;20021;-63
2023/03/31 11:34:58;;;;;;;9.45;1.80;;;15.30;73.40;;;;;;5054801;28;20116;-62
2023/03/31 11:37:36;;;;;;;7.07;1.92;;;15.30;73.50;;;;;;5047768;28;20365;-62
2023/03/31 11:40:34;;;;;;;6.63;2.10;;;15.30;73.30;;;;;;5030290;28;20036;-62
2023/03/31 11:43:24;;;;;;;9.70;2.45;;;15.30;73.20;;;;;;5026869;28;20029;-63
2023/03/31 11:45:54;;;;;;;6.13;1.67;;;15.30;73.20;;;;;;5022957;28;20065;-62
2023/03/31 11:48:35;;;;;;;7.82;2.45;;;15.40;73.00;;;;;;5025554;28;20121;-62
2023/03/31 11:51:03;;;;;;;8.48;1.77;;;15.40;72.80;;;;;;5027374;28;20051;-62
2023/03/31 11:53:37;;;;;;;8.93;2.13;;;15.50;72.50;;;;;;5032129;28;20029;-63
2023/03/31 11:56:06;;;;;;;7.05;1.98;;;15.50;72.10;;;;;;5021104;28;20036;-62
2023/03/31 11:58:32;;;;;;;10.75;2.47;;;15.60;71.90;;;;;;5023482;28;20079;-62
2023/03/31 12:01:16;;;;;;;10.10;2.40;;;15.60;71.70;;;;;;5032905;28;20040;-62
2023/03/31 12:04:18;;;;;;;6.97;2.15;;;15.60;71.50;;;;;;5008135;28;20026;-62
2023/03/31 12:06:46;;;;;;;8.30;2.45;;;15.50;71.50;;;;;;5033818;28;20032;-63
2023/03/31 12:09:14;;;;;;;10.68;2.20;;;15.40;71.60;;;;;;5029979;28;20033;-62
2023/03/31 12:11:40;;;;;;;11.63;2.22;;;15.40;71.60;;;;;;5025155;28;20057;-62
2023/03/31 12:14:28;;;;;;;12.68;2.67;;;15.30;71.50;;;;;;5033454;28;20427;-62
2023/03/31 12:17:03;;;;;;;9.60;2.50;;;15.20;71.40;;;;;;5034147;28;20057;-62
2023/03/31 12:19:57;;;;;;;7.30;2.13;;;15.20;71.40;;;;;;5031233;28;20025;-62
2023/03/31 12:22:26;;;;;;;10.77;2.17;;;15.30;71.30;;;;;;5032460;28;20025;-62
2023/03/31 12:24:52;;;;;;;11.60;2.25;;;15.30;71.10;;;;;;5032147;28;20519;-62
2023/03/31 12:27:38;;;;;;;6.95;1.70;;;15.30;70.90;;;;;;5032048;28;20030;-62
2023/03/31 12:30:16;;;;;;;7.22;2.20;;;15.30;70.80;;;;;;5002640;28;20075;-62
2023/03/31 12:32:55;;;;;;;11.93;2.40;;;15.30;71.00;;;;;;5030489;28;20106;-62
2023/03/31 12:35:26;;;;;;;5.78;1.95;;;15.20;71.10;;;;;;5011914;28;20120;-62
2023/03/31 12:38:18;;;;;;;7.57;2.38;;;15.20;71.30;;;;;;5026167;28;20037;-62
2023/03/31 12:41:01;;;;;;;9.38;2.83;;;15.20;71.40;;;;;;5031580;28;20091;-62
2023/03/31 12:43:47;;;;;;;7.90;2.05;;;15.20;71.50;;;;;;5033403;28;20116;-62
2023/03/31 12:46:18;;;;;;;9.43;2.65;;;15.20;71.30;;;;;;5049905;28;20056;-62
2023/03/31 12:49:04;;;;;;;9.15;2.72;;;15.10;71.30;;;;;;5043231;28;20439;-61
2023/03/31 12:52:10;;;;;;;11.20;2.95;;;15.10;71.90;;;;;;5036610;28;20020;-61
2023/03/31 12:55:02;;;;;;;9.15;2.53;;;15.10;71.20;;;;;;5038762;28;20052;-61
2023/03/31 12:57:28;;;;;;;;;;;15.00;71.20;;;;;;5030096;28;20446;-61
2023/03/31 13:00:20;;;;;;;7.78;2.67;;;15.00;71.40;;;;;;5036259;28;19947;-61
2023/03/31 13:02:47;;;;;;;7.90;2.13;;;15.00;71.50;;;;;;5034891;28;20041;-61
2023/03/31 13:05:37;;;;;;;9.98;2.60;;;14.90;71.30;;;;;;5039559;28;20036;-62
2023/03/31 13:08:05;;;;;;;8.50;2.25;;;14.90;71.30;;;;;;5038111;28;20472;-61
2023/03/31 13:10:32;;;;;;;7.78;2.33;;;14.90;71.50;;;;;;5043548;28;20045;-62
2023/03/31 13:13:02;;;;;;;9.25;2.00;;;14.90;71.50;;;;;;5034127;28;20048;-62